createdAt,value
2022-10-06T00:00:48.964Z,100159.38
2022-10-06T00:03:17.605Z,100160.16
2022-10-06T00:05:45.375Z,100160.97
2022-10-06T00:08:12.763Z,100157.81
2022-10-06T00:10:40.683Z,100153.88
2022-10-06T00:13:08.518Z,100148.34
2022-10-06T00:15:35.992Z,100149.94
2022-10-06T00:18:03.896Z,100151.50
2022-10-06T00:20:32.310Z,100157.81
2022-10-06T00:22:59.661Z,100152.31
2022-10-06T00:25:28.456Z,100156.25
2022-10-06T00:27:56.785Z,100157.84
2022-10-06T00:30:26.981Z,100149.94
2022-10-06T00:32:57.982Z,100156.25
2022-10-06T00:35:27.798Z,100165.34
2022-10-06T00:37:55.652Z,100154.69
2022-10-06T00:40:23.137Z,100154.28
2022-10-06T00:48:13.411Z,100161.00
2022-10-06T00:50:41.604Z,100157.44
2022-10-06T00:53:12.496Z,100161.38
2022-10-06T00:55:39.837Z,100165.72
2022-10-06T00:58:08.192Z,100165.72
2022-10-06T01:00:35.877Z,100166.13
2022-10-06T01:03:09.003Z,100170.47
2022-10-06T01:05:43.381Z,100170.47
2022-10-06T01:08:10.878Z,100179.16
2022-10-06T01:10:38.299Z,100175.97
2022-10-06T01:13:06.951Z,100176.78
2022-10-06T01:15:34.499Z,100177.56
2022-10-06T01:18:06.526Z,100177.97
2022-10-06T01:20:37.170Z,100190.59
2022-10-06T01:23:07.129Z,100177.56
2022-10-06T01:25:37.925Z,100184.66
2022-10-06T01:28:08.550Z,100183.91
2022-10-06T01:30:41.916Z,100178.38
2022-10-06T01:33:09.526Z,100183.88
2022-10-06T01:35:37.251Z,100181.50
2022-10-06T01:38:04.780Z,100176.00
2022-10-06T01:40:32.170Z,100182.69
2022-10-06T01:43:01.745Z,100179.91
2022-10-06T01:45:29.808Z,100179.13
2022-10-06T01:47:57.767Z,100177.56
2022-10-06T01:50:25.456Z,100170.03
2022-10-06T01:52:53.061Z,100169.66
2022-10-06T01:55:20.420Z,100172.81
2022-10-06T01:57:48.664Z,100170.44
2022-10-06T02:00:18.170Z,100175.97
2022-10-06T02:02:47.443Z,100176.75
2022-10-06T02:05:15.965Z,100176.78
2022-10-06T02:07:47.347Z,100181.09
2022-10-06T02:10:16.809Z,100171.22
2022-10-06T02:12:45.278Z,100168.47
2022-10-06T02:15:12.798Z,100183.50
2022-10-06T02:17:40.428Z,100177.56
2022-10-06T02:20:08.499Z,100185.84
2022-10-06T02:22:41.055Z,100175.97
2022-10-06T02:25:08.891Z,100177.56
2022-10-06T02:27:38.112Z,100176.00
2022-10-06T02:30:09.086Z,100176.75
2022-10-06T02:32:39.709Z,100182.28
2022-10-06T02:35:10.558Z,100187.81
2022-10-06T02:37:38.042Z,100187.81
2022-10-06T02:40:07.004Z,100185.84
2022-10-06T02:42:36.563Z,100188.22
2022-10-06T02:45:06.982Z,100181.91
2022-10-06T02:47:37.186Z,100189.81
2022-10-06T02:50:07.720Z,100183.88
2022-10-06T02:52:38.413Z,100182.69
2022-10-06T02:55:06.748Z,100170.44
2022-10-06T02:57:34.171Z,100174.81
2022-10-06T03:00:02.221Z,100180.34
2022-10-06T03:02:32.714Z,100185.44
2022-10-06T03:05:00.540Z,100175.97
2022-10-06T03:07:28.279Z,100191.78
2022-10-06T03:09:55.715Z,100191.78
2022-10-06T03:12:25.210Z,100191.78
2022-10-06T03:14:52.758Z,100190.19
2022-10-06T03:17:20.845Z,100187.41
2022-10-06T03:19:55.989Z,100191.38
2022-10-06T03:22:23.936Z,100189.00
2022-10-06T03:24:54.238Z,100184.66
2022-10-06T03:27:22.047Z,100194.53
2022-10-06T03:29:51.800Z,100203.22
2022-10-06T03:32:23.935Z,100192.94
2022-10-06T03:34:53.522Z,100188.19
2022-10-06T03:37:21.281Z,100191.75
2022-10-06T03:39:49.154Z,100185.06
2022-10-06T03:42:16.585Z,100199.66
2022-10-06T03:44:45.456Z,100198.09
2022-10-06T03:47:16.984Z,100198.09
2022-10-06T03:49:45.087Z,100203.22
2022-10-06T03:52:13.537Z,100205.56
2022-10-06T03:54:41.591Z,100202.81
2022-10-06T03:57:09.619Z,100206.34
2022-10-06T03:59:38.244Z,100213.88
2022-10-06T04:02:06.848Z,100212.28
2022-10-06T04:04:38.545Z,100213.06
2022-10-06T04:07:11.417Z,100204.41
2022-10-06T04:09:39.651Z,100217.41
2022-10-06T04:12:07.989Z,100217.03
2022-10-06T04:14:37.554Z,100218.59
2022-10-06T04:17:06.509Z,100217.81
2022-10-06T04:19:37.047Z,100217.81
2022-10-06T04:22:04.621Z,100220.19
2022-10-06T04:24:33.034Z,100226.47
2022-10-06T04:27:20.227Z,100222.94
2022-10-06T04:29:53.591Z,100226.50
2022-10-06T04:32:21.950Z,100222.50
2022-10-06T04:34:49.333Z,100221.72
2022-10-06T04:37:17.133Z,100230.41
2022-10-06T04:39:45.185Z,100232.78
2022-10-06T04:42:12.990Z,100228.84
2022-10-06T04:44:40.742Z,100239.50
2022-10-06T04:47:08.058Z,100239.88
2022-10-06T04:49:35.468Z,100238.31
2022-10-06T04:52:03.349Z,100235.94
2022-10-06T04:54:34.088Z,100239.88
2022-10-06T04:57:04.115Z,100240.66
2022-10-06T04:59:52.099Z,100242.59
2022-10-06T05:02:20.930Z,100246.91
2022-10-06T05:04:52.291Z,100246.16
2022-10-06T05:07:21.451Z,100246.13
2022-10-06T05:09:48.787Z,100255.59
2022-10-06T05:12:16.123Z,100254.41
2022-10-06T05:14:44.865Z,100252.81
2022-10-06T05:17:12.112Z,100252.03
2022-10-06T05:19:39.961Z,100262.31
2022-10-06T05:22:08.143Z,100252.44
2022-10-06T05:24:36.942Z,100263.47
2022-10-06T05:27:04.660Z,100267.03
2022-10-06T05:29:34.853Z,100268.19
2022-10-06T05:32:03.667Z,100259.88
2022-10-06T05:34:31.144Z,100266.19
2022-10-06T05:36:58.740Z,100260.22
2022-10-06T05:39:26.302Z,100253.06
2022-10-06T05:41:57.248Z,100252.25
2022-10-06T05:44:25.631Z,100249.50
2022-10-06T05:46:53.953Z,100250.28
2022-10-06T05:49:21.551Z,100253.44
2022-10-06T05:51:53.911Z,100247.50
2022-10-06T05:54:26.241Z,100250.25
2022-10-06T05:56:53.833Z,100250.22
2022-10-06T05:59:22.270Z,100251.75
2022-10-06T06:01:50.054Z,100246.56
2022-10-06T06:04:30.131Z,100245.78
2022-10-06T06:06:57.741Z,100252.47
2022-10-06T06:09:28.419Z,100259.22
2022-10-06T06:12:00.358Z,100256.81
2022-10-06T06:14:57.929Z,100258.34
2022-10-06T06:17:32.242Z,100260.66
2022-10-06T06:20:00.705Z,100260.50
2022-10-06T06:22:28.488Z,100258.00
2022-10-06T06:24:55.757Z,100263.47
2022-10-06T06:27:23.628Z,100266.16
2022-10-06T06:29:51.114Z,100266.88
2022-10-06T06:32:18.678Z,100263.25
2022-10-06T06:34:46.099Z,100271.50
2022-10-06T06:37:15.434Z,100263.97
2022-10-06T06:39:46.260Z,100267.88
2022-10-06T06:42:13.872Z,100266.69
2022-10-06T06:44:54.979Z,100278.59
2022-10-06T06:47:30.169Z,100278.22
2022-10-06T06:50:00.421Z,100273.44
2022-10-06T06:52:31.353Z,100276.22
2022-10-06T06:54:59.222Z,100272.63
2022-10-06T06:57:27.657Z,100271.00
2022-10-06T06:59:57.774Z,100273.78
2022-10-06T07:02:30.076Z,100267.75
2022-10-06T07:04:58.045Z,100265.69
2022-10-06T07:07:25.455Z,100265.94
2022-10-06T07:09:52.919Z,100261.00
2022-10-06T07:12:22.555Z,100261.56
2022-10-06T07:15:15.557Z,100271.38
2022-10-06T07:18:05.911Z,100269.38
2022-10-06T07:20:53.161Z,100273.47
2022-10-06T07:23:41.215Z,100265.59
2022-10-06T07:26:13.224Z,100267.25
2022-10-06T07:28:42.642Z,100270.03
2022-10-06T07:31:11.820Z,100266.06
2022-10-06T07:33:41.056Z,100262.88
2022-10-06T07:36:10.056Z,100264.00
2022-10-06T07:38:41.823Z,100261.56
2022-10-06T07:41:24.652Z,100248.81
2022-10-06T07:43:55.736Z,100246.00
2022-10-06T07:46:25.103Z,100245.59
2022-10-06T07:49:05.260Z,100249.09
2022-10-06T07:51:32.878Z,100246.31
2022-10-06T07:54:02.628Z,100249.19
2022-10-06T07:56:35.092Z,100246.00
2022-10-06T07:59:03.239Z,100248.31
2022-10-06T08:01:31.282Z,100247.44
2022-10-06T08:03:58.816Z,100246.22
2022-10-06T08:06:26.599Z,100243.81
2022-10-06T08:08:53.984Z,100243.00
2022-10-06T08:11:23.137Z,100244.19
2022-10-06T08:13:52.213Z,100245.66
2022-10-06T08:16:22.401Z,100249.53
2022-10-06T08:18:53.503Z,100248.28
2022-10-06T08:23:59.631Z,100252.13
2022-10-06T08:26:28.589Z,100251.66
2022-10-06T08:29:03.334Z,100245.31
2022-10-06T08:31:32.363Z,100242.53
2022-10-06T08:33:59.842Z,100240.13
2022-10-06T08:36:31.997Z,100243.19
2022-10-06T08:39:00.866Z,100239.81
2022-10-06T08:49:39.023Z,100235.97
2022-10-06T08:55:45.456Z,100236.69
2022-10-06T09:03:40.586Z,100240.28
2022-10-06T09:06:19.561Z,100239.03
2022-10-06T09:08:58.907Z,100248.16
2022-10-06T09:16:54.485Z,100240.91
2022-10-06T09:19:31.266Z,100244.84
2022-10-06T09:22:04.932Z,100233.22
2022-10-06T09:24:47.171Z,100230.75
2022-10-06T09:27:21.901Z,100239.03
2022-10-06T09:29:50.774Z,100235.69
2022-10-06T09:32:20.399Z,100237.63
2022-10-06T09:34:53.226Z,100234.69
2022-10-06T09:37:20.573Z,100238.91
2022-10-06T09:39:51.657Z,100247.22
2022-10-06T09:47:45.382Z,100234.41
2022-10-06T09:50:20.684Z,100238.28
2022-10-06T09:53:12.189Z,100231.06
2022-10-06T09:58:33.154Z,100239.72
2022-10-06T10:01:05.064Z,100238.84
2022-10-06T10:04:18.900Z,100240.56
2022-10-06T10:06:41.990Z,100244.66
2022-10-06T10:09:27.506Z,100240.78
2022-10-06T10:14:47.803Z,100231.34
2022-10-06T10:17:21.868Z,100251.69
2022-10-06T10:19:54.606Z,100257.34
2022-10-06T10:22:41.438Z,100253.69
2022-10-06T10:28:18.743Z,100248.00
2022-10-06T10:31:15.420Z,100245.22
2022-10-06T10:36:33.438Z,100246.78
2022-10-06T10:39:01.692Z,100251.91
2022-10-06T10:41:39.712Z,100251.56
2022-10-06T10:46:55.674Z,100253.91
2022-10-06T10:49:30.137Z,100250.34
2022-10-06T10:52:07.348Z,100250.41
2022-10-06T10:57:19.746Z,100241.28
2022-10-06T11:02:26.684Z,100242.28
2022-10-06T11:05:01.626Z,100241.41
2022-10-06T11:07:43.224Z,100240.50
2022-10-06T11:10:33.789Z,100237.13
2022-10-06T11:24:25.671Z,100232.63
2022-10-06T11:35:19.844Z,100236.78
2022-10-06T11:37:55.897Z,100241.84
2022-10-06T11:45:49.547Z,100240.00
2022-10-06T11:48:26.830Z,100247.06
2022-10-06T11:50:56.212Z,100244.19
2022-10-06T11:53:46.605Z,100242.81
2022-10-06T12:04:26.642Z,100240.63
2022-10-06T12:06:57.400Z,100235.38
2022-10-06T12:18:38.901Z,100235.06
2022-10-06T12:21:31.943Z,100239.59
2022-10-06T12:29:36.721Z,100236.63
2022-10-06T12:34:52.336Z,100238.13
2022-10-06T12:37:41.245Z,100244.47
2022-10-06T12:40:48.262Z,100246.41
2022-10-06T12:48:57.730Z,100235.25
2022-10-06T12:51:44.045Z,100242.22
2022-10-06T12:54:35.172Z,100249.50
2022-10-06T12:57:16.147Z,100238.84
2022-10-06T12:59:43.554Z,100243.66
2022-10-06T13:02:19.416Z,100238.00
2022-10-06T13:05:14.767Z,100239.44
2022-10-06T13:08:04.792Z,100238.56
2022-10-06T13:10:33.346Z,100235.78
2022-10-06T13:13:01.457Z,100233.06
2022-10-06T13:21:20.161Z,100215.84
2022-10-06T13:23:48.383Z,100211.50
2022-10-06T13:29:35.186Z,100218.78
2022-10-06T13:32:05.304Z,100217.59
2022-10-06T13:34:35.087Z,100217.59
2022-10-06T13:37:02.851Z,100208.78
2022-10-06T13:39:32.174Z,100218.28
2022-10-06T13:47:17.909Z,100216.84
2022-10-06T13:52:39.496Z,100215.06
2022-10-06T13:55:18.857Z,100217.16
2022-10-06T14:00:26.655Z,100222.84
2022-10-06T14:16:22.703Z,100234.97
2022-10-06T14:19:03.001Z,100240.53
2022-10-06T14:27:00.556Z,100234.25
2022-10-06T14:29:27.982Z,100231.94
2022-10-06T14:31:55.641Z,100236.38
2022-10-06T14:34:23.019Z,100241.56
2022-10-06T14:36:52.711Z,100248.00
2022-10-06T14:39:20.150Z,100255.22
2022-10-06T14:41:47.586Z,100258.41
2022-10-06T14:44:16.295Z,100255.25
2022-10-06T14:46:48.375Z,100257.25
2022-10-06T14:49:16.130Z,100253.69
2022-10-06T14:51:44.915Z,100262.47
2022-10-06T14:54:12.716Z,100260.88
2022-10-06T14:56:41.671Z,100257.75
2022-10-06T14:59:12.872Z,100259.38
2022-10-06T15:01:40.900Z,100263.00
2022-10-06T15:04:12.266Z,100263.44
2022-10-06T15:07:00.402Z,100258.72
2022-10-06T15:09:30.584Z,100257.53
2022-10-06T15:11:59.324Z,100258.78
2022-10-06T15:14:28.756Z,100255.22
2022-10-06T15:16:59.352Z,100255.22
2022-10-06T15:19:27.458Z,100250.84
2022-10-06T15:21:54.863Z,100261.97
2022-10-06T15:24:22.278Z,100258.41
2022-10-06T15:27:09.733Z,100254.44
2022-10-06T15:29:37.109Z,100251.66
2022-10-06T15:32:06.709Z,100250.13
2022-10-06T15:34:37.058Z,100248.53
2022-10-06T15:37:05.451Z,100263.66
2022-10-06T15:39:36.626Z,100248.16
2022-10-06T15:42:24.290Z,100243.47
2022-10-06T15:44:52.129Z,100246.66
2022-10-06T15:47:19.490Z,100247.88
2022-10-06T15:49:47.307Z,100247.50
2022-10-06T15:52:14.693Z,100259.81
2022-10-06T15:54:42.170Z,100253.91
2022-10-06T15:57:16.390Z,100255.13
2022-10-06T15:59:45.362Z,100253.91
2022-10-06T16:02:16.051Z,100257.09
2022-10-06T16:07:22.298Z,100249.16
2022-10-06T16:09:51.089Z,100250.72
2022-10-06T16:12:21.610Z,100254.31
2022-10-06T16:14:50.302Z,100247.16
2022-10-06T16:17:18.765Z,100249.16
2022-10-06T16:19:47.283Z,100248.78
2022-10-06T16:22:16.979Z,100242.44
2022-10-06T16:24:44.483Z,100247.63
2022-10-06T16:27:13.366Z,100239.28
2022-10-06T16:29:40.950Z,100243.31
2022-10-06T16:32:08.508Z,100239.28
2022-10-06T16:34:35.824Z,100236.50
2022-10-06T16:37:03.217Z,100226.63
2022-10-06T16:39:30.591Z,100230.59
2022-10-06T16:41:58.040Z,100223.44
2022-10-06T16:44:25.376Z,100219.16
2022-10-06T16:46:52.754Z,100221.56
2022-10-06T16:49:21.362Z,100215.72
2022-10-06T16:51:48.681Z,100217.75
2022-10-06T16:54:17.627Z,100203.88
2022-10-06T16:56:47.539Z,100213.50
2022-10-06T16:59:22.434Z,100205.22
2022-10-06T17:01:50.930Z,100202.84
2022-10-06T17:04:20.973Z,100191.78
2022-10-06T17:06:51.559Z,100202.56
2022-10-06T17:09:21.281Z,100201.81
2022-10-06T17:11:51.660Z,100189.94
2022-10-06T17:14:20.364Z,100193.56
2022-10-06T17:16:49.726Z,100198.75
2022-10-06T17:19:18.952Z,100200.38
2022-10-06T17:21:49.591Z,100200.00
2022-10-06T17:24:18.517Z,100196.88
2022-10-06T17:26:48.776Z,100203.28
2022-10-06T17:29:21.622Z,100197.72
2022-10-06T17:31:56.544Z,100200.91
2022-10-06T17:34:27.929Z,100197.75
2022-10-06T17:37:08.627Z,100201.75
2022-10-06T17:39:37.833Z,100204.53
2022-10-06T17:42:05.495Z,100201.31
2022-10-06T17:44:33.716Z,100203.69
2022-10-06T17:47:01.190Z,100203.28
2022-10-06T17:49:30.708Z,100197.28
2022-10-06T17:52:01.816Z,100201.63
2022-10-06T17:54:33.884Z,100190.13
2022-10-06T17:57:01.413Z,100191.66
2022-10-06T17:59:31.990Z,100183.34
2022-10-06T18:02:01.648Z,100183.72
2022-10-06T18:04:29.932Z,100177.38
2022-10-06T18:06:57.665Z,100181.31
2022-10-06T18:09:25.759Z,100181.31
2022-10-06T18:11:57.978Z,100185.66
2022-10-06T18:14:27.449Z,100174.53
2022-10-06T18:16:58.596Z,100178.47
2022-10-06T18:19:30.422Z,100170.50
2022-10-06T18:22:01.097Z,100168.50
2022-10-06T18:24:30.292Z,100155.00
2022-10-06T18:27:00.104Z,100158.13
2022-10-06T18:29:31.826Z,100160.47
2022-10-06T18:32:25.810Z,100160.06
2022-10-06T18:37:33.900Z,100153.72
2022-10-06T18:40:05.540Z,100158.88
2022-10-06T18:42:33.113Z,100147.31
2022-10-06T18:45:20.279Z,100154.84
2022-10-06T18:48:07.425Z,100140.50
2022-10-06T18:50:35.376Z,100138.09
2022-10-06T18:53:04.592Z,100139.66
2022-10-06T18:55:32.268Z,100139.22
2022-10-06T18:57:59.715Z,100134.84
2022-10-06T19:00:27.624Z,100126.06
2022-10-06T19:02:57.060Z,100130.00
2022-10-06T19:05:25.688Z,100133.13
2022-10-06T19:07:54.228Z,100128.28
2022-10-06T19:10:22.367Z,100119.53
2022-10-06T19:12:49.983Z,100121.91
2022-10-06T19:15:20.730Z,100125.03
2022-10-06T19:17:49.820Z,100121.84
2022-10-06T19:20:18.802Z,100118.63
2022-10-06T19:22:47.931Z,100113.06
2022-10-06T19:25:19.083Z,100117.41
2022-10-06T19:27:47.207Z,100113.41
2022-10-06T19:30:15.066Z,100110.63
2022-10-06T19:32:42.378Z,100116.19
2022-10-06T19:35:10.761Z,100109.44
2022-10-06T19:37:39.494Z,100103.47
2022-10-06T19:40:08.992Z,100095.91
2022-10-06T19:42:52.306Z,100101.47
2022-10-06T19:45:20.983Z,100104.25
2022-10-06T19:47:48.673Z,100103.88
2022-10-06T19:50:17.355Z,100098.69
2022-10-06T19:52:45.478Z,100095.47
2022-10-06T19:55:12.800Z,100103.41
2022-10-06T19:57:40.505Z,100097.44
2022-10-06T20:00:10.522Z,100090.75
2022-10-06T20:02:51.332Z,100088.06
2022-10-06T20:05:19.458Z,100095.66
2022-10-06T20:07:47.531Z,100094.91
2022-10-06T20:10:15.879Z,100089.81
2022-10-06T20:12:43.255Z,100095.78
2022-10-06T20:15:11.406Z,100091.88
2022-10-06T20:17:39.562Z,100089.50
2022-10-06T20:20:07.262Z,100093.47
2022-10-06T20:22:34.603Z,100084.78
2022-10-06T20:25:02.718Z,100086.84
2022-10-06T20:27:30.566Z,100087.75
2022-10-06T20:29:58.402Z,100084.31
2022-10-06T20:32:25.860Z,100087.56
2022-10-06T20:34:53.286Z,100097.50
2022-10-06T20:37:20.589Z,100095.53
2022-10-06T20:40:07.768Z,100101.47
2022-10-06T20:42:35.215Z,100091.47
2022-10-06T20:45:02.784Z,100090.28
2022-10-06T20:47:30.611Z,100089.88
2022-10-06T20:49:57.858Z,100102.53
2022-10-06T20:52:25.208Z,100100.53
2022-10-06T20:54:52.604Z,100094.97
2022-10-06T20:57:20.265Z,100091.41
2022-10-06T20:59:47.551Z,100099.00
2022-10-06T21:02:15.021Z,100093.84
2022-10-06T21:04:43.810Z,100097.81
2022-10-06T21:07:11.701Z,100084.78
2022-10-06T21:09:39.034Z,100090.38
2022-10-06T21:12:06.404Z,100083.31
2022-10-06T21:14:35.481Z,100087.72
2022-10-06T21:17:02.859Z,100087.78
2022-10-06T21:19:30.346Z,100082.22
2022-10-06T21:21:57.736Z,100078.28
2022-10-06T21:24:25.117Z,100084.63
2022-10-06T21:26:53.039Z,100093.75
2022-10-06T21:29:20.845Z,100077.09
2022-10-06T21:31:48.582Z,100076.28
2022-10-06T21:34:16.014Z,100086.22
2022-10-06T21:36:44.570Z,100087.00
2022-10-06T21:39:13.303Z,100077.50
2022-10-06T21:41:41.276Z,100081.91
2022-10-06T21:46:51.001Z,100078.34
2022-10-06T21:49:20.404Z,100080.72
2022-10-06T21:51:50.043Z,100077.88
2022-10-06T21:54:18.173Z,100083.81
2022-10-06T21:56:45.966Z,100088.13
2022-10-06T21:59:13.920Z,100079.44
2022-10-06T22:01:44.277Z,100073.91
2022-10-06T22:04:14.526Z,100067.56
2022-10-06T22:06:43.318Z,100077.47
2022-10-06T22:09:14.818Z,100078.59
2022-10-06T22:11:43.858Z,100086.09
2022-10-06T22:14:14.820Z,100088.03
2022-10-06T22:16:42.698Z,100084.81
2022-10-06T22:19:12.415Z,100081.63
2022-10-06T22:21:42.705Z,100080.44
2022-10-06T22:24:12.686Z,100082.00
2022-10-06T22:26:41.962Z,100080.81
2022-10-06T22:29:12.399Z,100082.78
2022-10-06T22:31:42.324Z,100087.56
2022-10-06T22:34:11.333Z,100083.59
2022-10-06T22:36:39.275Z,100085.13
2022-10-06T22:39:07.026Z,100081.94
2022-10-06T22:41:34.399Z,100086.31
2022-10-06T22:44:01.961Z,100082.31
2022-10-06T22:46:31.911Z,100084.66
2022-10-06T22:48:59.893Z,100080.31
2022-10-06T22:51:27.790Z,100084.66
2022-10-06T22:53:58.225Z,100091.78
2022-10-06T22:56:28.305Z,100089.00
2022-10-06T22:58:59.864Z,100076.31
2022-10-06T23:01:27.583Z,100081.47
2022-10-06T23:03:55.950Z,100085.03
2022-10-06T23:06:24.778Z,100081.06
2022-10-06T23:08:52.632Z,100090.94
2022-10-06T23:11:21.886Z,100088.53
2022-10-06T23:13:50.769Z,100083.75
2022-10-06T23:16:19.310Z,100094.44
2022-10-06T23:18:47.756Z,100086.47
2022-10-06T23:21:22.348Z,100092.81
2022-10-06T23:23:55.410Z,100080.50
2022-10-06T23:26:23.643Z,100089.19
2022-10-06T23:28:53.762Z,100095.91
2022-10-06T23:31:21.451Z,100094.28
2022-10-06T23:33:49.446Z,100091.06
2022-10-06T23:36:18.282Z,100106.50
2022-10-06T23:38:46.382Z,100101.72
2022-10-06T23:41:14.338Z,100100.47
2022-10-06T23:43:41.979Z,100104.84
2022-10-06T23:46:09.678Z,100110.78
2022-10-06T23:48:37.752Z,100104.44
2022-10-06T23:51:09.120Z,100111.56
2022-10-06T23:53:36.816Z,100113.13
2022-10-06T23:56:05.515Z,100099.66
2022-10-06T23:58:33.247Z,100112.34
